sensor_id;sensor_type;location;lat;lon;timestamp;pressure;altitude;pressure_sealevel;temperature;humidity
77005;BME280;67261;53.132;18.006;2024-01-15T00:02:26;98692.55;;;2.17;82.62
77005;BME280;67261;53.132;18.006;2024-01-15T00:04:53;98690.94;;;2.16;82.66
77005;BME280;67261;53.132;18.006;2024-01-15T00:07:20;98686.25;;;2.14;82.77
77005;BME280;67261;53.132;18.006;2024-01-15T00:09:47;98680.90;;;2.12;82.79
77005;BME280;67261;53.132;18.006;2024-01-15T00:12:14;98673.82;;;2.11;82.76
77005;BME280;67261;53.132;18.006;2024-01-15T00:14:41;98670.23;;;2.10;82.85
77005;BME280;67261;53.132;18.006;2024-01-15T00:17:08;98668.02;;;2.10;82.82
77005;BME280;67261;53.132;18.006;2024-01-15T00:19:35;98664.27;;;2.10;82.90
77005;BME280;67261;53.132;18.006;2024-01-15T00:22:02;98661.48;;;2.10;82.93
77005;BME280;67261;53.132;18.006;2024-01-15T00:24:30;98657.85;;;2.10;82.97
77005;BME280;67261;53.132;18.006;2024-01-15T00:26:57;98651.41;;;2.10;82.98
77005;BME280;67261;53.132;18.006;2024-01-15T00:29:24;98639.56;;;2.10;83.00
77005;BME280;67261;53.132;18.006;2024-01-15T00:31:51;98635.69;;;2.08;82.89
77005;BME280;67261;53.132;18.006;2024-01-15T00:34:18;98627.48;;;2.07;82.99
77005;BME280;67261;53.132;18.006;2024-01-15T00:36:44;98621.98;;;2.06;83.04
77005;BME280;67261;53.132;18.006;2024-01-15T00:39:11;98620.15;;;2.07;82.94
77005;BME280;67261;53.132;18.006;2024-01-15T00:41:38;98616.59;;;2.06;83.05
77005;BME280;67261;53.132;18.006;2024-01-15T00:44:05;98612.87;;;2.05;83.22
77005;BME280;67261;53.132;18.006;2024-01-15T00:46:42;98611.96;;;2.05;83.18
77005;BME280;67261;53.132;18.006;2024-01-15T00:49:09;98605.86;;;2.05;83.07
77005;BME280;67261;53.132;18.006;2024-01-15T00:51:36;98606.34;;;2.06;83.04
77005;BME280;67261;53.132;18.006;2024-01-15T00:54:03;98597.19;;;2.05;83.14
77005;BME280;67261;53.132;18.006;2024-01-15T00:56:30;98591.11;;;2.05;83.16
77005;BME280;67261;53.132;18.006;2024-01-15T00:58:56;98582.80;;;2.04;83.12
77005;BME280;67261;53.132;18.006;2024-01-15T01:01:24;98581.23;;;2.04;83.23
77005;BME280;67261;53.132;18.006;2024-01-15T01:03:50;98575.77;;;2.05;83.22
77005;BME280;67261;53.132;18.006;2024-01-15T01:06:17;98573.90;;;2.04;83.32
77005;BME280;67261;53.132;18.006;2024-01-15T01:08:44;98568.45;;;2.05;83.31
77005;BME280;67261;53.132;18.006;2024-01-15T01:11:17;98564.38;;;2.05;83.26
77005;BME280;67261;53.132;18.006;2024-01-15T01:13:44;98554.64;;;2.05;83.28
77005;BME280;67261;53.132;18.006;2024-01-15T01:16:11;98546.84;;;2.04;83.25
77005;BME280;67261;53.132;18.006;2024-01-15T01:18:38;98540.41;;;2.04;83.28
77005;BME280;67261;53.132;18.006;2024-01-15T01:21:05;98541.85;;;2.04;83.32
77005;BME280;67261;53.132;18.006;2024-01-15T01:23:32;98544.98;;;2.04;83.30
77005;BME280;67261;53.132;18.006;2024-01-15T01:25:59;98540.97;;;2.04;83.36
77005;BME280;67261;53.132;18.006;2024-01-15T01:28:27;98538.19;;;2.05;83.36
77005;BME280;67261;53.132;18.006;2024-01-15T01:30:55;98537.38;;;2.05;83.30
77005;BME280;67261;53.132;18.006;2024-01-15T01:33:21;98534.77;;;2.05;83.44
77005;BME280;67261;53.132;18.006;2024-01-15T01:35:48;98530.11;;;2.06;83.33
77005;BME280;67261;53.132;18.006;2024-01-15T01:38:15;98524.46;;;2.06;83.23
77005;BME280;67261;53.132;18.006;2024-01-15T01:40:42;98522.20;;;2.05;83.30
77005;BME280;67261;53.132;18.006;2024-01-15T01:43:09;98519.16;;;2.05;83.30
77005;BME280;67261;53.132;18.006;2024-01-15T01:45:37;98514.45;;;2.05;83.39
77005;BME280;67261;53.132;18.006;2024-01-15T01:48:05;98513.45;;;2.07;83.32
77005;BME280;67261;53.132;18.006;2024-01-15T01:50:32;98507.05;;;2.08;83.29
77005;BME280;67261;53.132;18.006;2024-01-15T01:53:01;98497.69;;;2.07;83.29
77005;BME280;67261;53.132;18.006;2024-01-15T01:55:30;98496.29;;;2.07;83.24
77005;BME280;67261;53.132;18.006;2024-01-15T01:58:00;98495.86;;;2.06;83.15
77005;BME280;67261;53.132;18.006;2024-01-15T02:00:27;98492.06;;;2.06;83.20
77005;BME280;67261;53.132;18.006;2024-01-15T02:02:54;98490.22;;;2.05;83.41
77005;BME280;67261;53.132;18.006;2024-01-15T02:05:22;98481.08;;;2.05;83.30
77005;BME280;67261;53.132;18.006;2024-01-15T02:07:49;98470.70;;;2.04;83.31
77005;BME280;67261;53.132;18.006;2024-01-15T02:10:16;98463.77;;;2.03;83.27
77005;BME280;67261;53.132;18.006;2024-01-15T02:12:43;98459.80;;;2.03;83.35
77005;BME280;67261;53.132;18.006;2024-01-15T02:15:10;98462.60;;;2.01;83.38
77005;BME280;67261;53.132;18.006;2024-01-15T02:17:57;98455.86;;;2.00;83.48
77005;BME280;67261;53.132;18.006;2024-01-15T02:20:25;98455.84;;;2.01;83.41
77005;BME280;67261;53.132;18.006;2024-01-15T02:22:52;98453.39;;;2.01;83.30
77005;BME280;67261;53.132;18.006;2024-01-15T02:25:20;98445.02;;;2.01;83.36
77005;BME280;67261;53.132;18.006;2024-01-15T02:27:47;98444.14;;;2.01;83.30
77005;BME280;67261;53.132;18.006;2024-01-15T02:30:14;98440.40;;;2.01;83.32
77005;BME280;67261;53.132;18.006;2024-01-15T02:32:42;98438.54;;;2.03;83.26
77005;BME280;67261;53.132;18.006;2024-01-15T02:35:09;98434.52;;;2.03;83.04
77005;BME280;67261;53.132;18.006;2024-01-15T02:37:36;98429.43;;;2.03;83.23
77005;BME280;67261;53.132;18.006;2024-01-15T02:40:03;98429.05;;;2.01;83.20
77005;BME280;67261;53.132;18.006;2024-01-15T02:42:30;98426.56;;;2.02;83.04
77005;BME280;67261;53.132;18.006;2024-01-15T02:44:57;98422.39;;;2.02;82.88
77005;BME280;67261;53.132;18.006;2024-01-15T02:47:24;98421.45;;;2.01;83.02
77005;BME280;67261;53.132;18.006;2024-01-15T02:49:51;98416.68;;;2.01;82.96
77005;BME280;67261;53.132;18.006;2024-01-15T02:52:18;98410.66;;;2.02;82.89
77005;BME280;67261;53.132;18.006;2024-01-15T02:54:45;98409.44;;;2.02;82.84
77005;BME280;67261;53.132;18.006;2024-01-15T02:57:12;98400.88;;;2.02;82.83
77005;BME280;67261;53.132;18.006;2024-01-15T02:59:39;98398.39;;;2.03;82.84
77005;BME280;67261;53.132;18.006;2024-01-15T03:02:06;98393.62;;;2.03;82.85
77005;BME280;67261;53.132;18.006;2024-01-15T03:04:33;98394.04;;;2.03;82.95
77005;BME280;67261;53.132;18.006;2024-01-15T03:07:00;98391.95;;;2.03;82.86
77005;BME280;67261;53.132;18.006;2024-01-15T03:09:27;98388.02;;;2.04;82.96
77005;BME280;67261;53.132;18.006;2024-01-15T03:11:54;98386.05;;;2.03;82.84
77005;BME280;67261;53.132;18.006;2024-01-15T03:14:21;98383.38;;;2.02;83.00
77005;BME280;67261;53.132;18.006;2024-01-15T03:16:48;98378.27;;;2.02;83.01
77005;BME280;67261;53.132;18.006;2024-01-15T03:19:14;98372.11;;;2.02;82.98
77005;BME280;67261;53.132;18.006;2024-01-15T03:21:41;98366.09;;;2.00;82.94
77005;BME280;67261;53.132;18.006;2024-01-15T03:24:09;98358.70;;;1.97;83.07
77005;BME280;67261;53.132;18.006;2024-01-15T03:26:36;98353.25;;;1.94;83.22
77005;BME280;67261;53.132;18.006;2024-01-15T03:29:02;98352.02;;;1.92;83.32
77005;BME280;67261;53.132;18.006;2024-01-15T03:31:29;98351.42;;;1.89;83.25
77005;BME280;67261;53.132;18.006;2024-01-15T03:33:56;98345.08;;;1.87;83.41
77005;BME280;67261;53.132;18.006;2024-01-15T03:36:23;98341.20;;;1.86;83.45
77005;BME280;67261;53.132;18.006;2024-01-15T03:38:50;98340.13;;;1.84;83.53
77005;BME280;67261;53.132;18.006;2024-01-15T03:41:17;98334.02;;;1.84;83.43
77005;BME280;67261;53.132;18.006;2024-01-15T03:43:44;98338.00;;;1.85;83.49
77005;BME280;67261;53.132;18.006;2024-01-15T03:46:12;98331.84;;;1.83;83.63
77005;BME280;67261;53.132;18.006;2024-01-15T03:48:39;98330.11;;;1.82;83.54
77005;BME280;67261;53.132;18.006;2024-01-15T03:51:06;98322.42;;;1.80;83.71
77005;BME280;67261;53.132;18.006;2024-01-15T03:53:33;98322.45;;;1.78;83.74
77005;BME280;67261;53.132;18.006;2024-01-15T03:56:00;98321.52;;;1.77;83.66
77005;BME280;67261;53.132;18.006;2024-01-15T03:58:27;98318.13;;;1.76;83.82
77005;BME280;67261;53.132;18.006;2024-01-15T04:00:54;98315.10;;;1.75;83.76
77005;BME280;67261;53.132;18.006;2024-01-15T04:03:20;98308.73;;;1.73;83.83
77005;BME280;67261;53.132;18.006;2024-01-15T04:05:47;98308.39;;;1.71;83.97
77005;BME280;67261;53.132;18.006;2024-01-15T04:08:14;98304.49;;;1.68;83.98
77005;BME280;67261;53.132;18.006;2024-01-15T04:10:41;98306.51;;;1.67;84.03
77005;BME280;67261;53.132;18.006;2024-01-15T04:13:08;98307.75;;;1.67;84.15
77005;BME280;67261;53.132;18.006;2024-01-15T04:15:35;98307.48;;;1.66;84.07
77005;BME280;67261;53.132;18.006;2024-01-15T04:18:03;98301.29;;;1.66;84.20
77005;BME280;67261;53.132;18.006;2024-01-15T04:20:31;98298.14;;;1.64;84.16
77005;BME280;67261;53.132;18.006;2024-01-15T04:22:58;98297.15;;;1.63;84.23
77005;BME280;67261;53.132;18.006;2024-01-15T04:25:25;98301.16;;;1.63;84.19
77005;BME280;67261;53.132;18.006;2024-01-15T04:27:51;98303.91;;;1.62;84.27
77005;BME280;67261;53.132;18.006;2024-01-15T04:30:19;98296.77;;;1.59;84.28
77005;BME280;67261;53.132;18.006;2024-01-15T04:32:46;98292.02;;;1.58;84.23
77005;BME280;67261;53.132;18.006;2024-01-15T04:35:13;98284.39;;;1.57;83.78
77005;BME280;67261;53.132;18.006;2024-01-15T04:37:40;98282.23;;;1.58;83.65
77005;BME280;67261;53.132;18.006;2024-01-15T04:40:07;98284.40;;;1.59;83.51
77005;BME280;67261;53.132;18.006;2024-01-15T04:42:34;98277.66;;;1.60;83.25
77005;BME280;67261;53.132;18.006;2024-01-15T04:45:01;98279.83;;;1.61;83.30
77005;BME280;67261;53.132;18.006;2024-01-15T04:47:29;98277.11;;;1.60;83.23
77005;BME280;67261;53.132;18.006;2024-01-15T04:49:56;98276.88;;;1.59;83.32
77005;BME280;67261;53.132;18.006;2024-01-15T04:52:23;98278.94;;;1.58;83.43
77005;BME280;67261;53.132;18.006;2024-01-15T04:54:50;98280.77;;;1.57;83.55
77005;BME280;67261;53.132;18.006;2024-01-15T04:57:17;98273.30;;;1.57;83.50
77005;BME280;67261;53.132;18.006;2024-01-15T04:59:44;98277.02;;;1.56;83.55
77005;BME280;67261;53.132;18.006;2024-01-15T05:02:11;98278.78;;;1.56;83.56
77005;BME280;67261;53.132;18.006;2024-01-15T05:04:38;98282.45;;;1.56;83.42
77005;BME280;67261;53.132;18.006;2024-01-15T05:07:06;98282.67;;;1.55;83.36
77005;BME280;67261;53.132;18.006;2024-01-15T05:09:33;98280.75;;;1.54;83.30
77005;BME280;67261;53.132;18.006;2024-01-15T05:12:00;98281.12;;;1.52;83.28
77005;BME280;67261;53.132;18.006;2024-01-15T05:14:27;98279.91;;;1.49;83.21
77005;BME280;67261;53.132;18.006;2024-01-15T05:16:54;98280.90;;;1.45;82.98
77005;BME280;67261;53.132;18.006;2024-01-15T05:19:21;98279.74;;;1.43;82.86
77005;BME280;67261;53.132;18.006;2024-01-15T05:21:48;98280.56;;;1.42;82.90
77005;BME280;67261;53.132;18.006;2024-01-15T05:24:15;98284.70;;;1.40;82.75
77005;BME280;67261;53.132;18.006;2024-01-15T05:26:42;98280.60;;;1.36;82.62
77005;BME280;67261;53.132;18.006;2024-01-15T05:29:09;98283.40;;;1.33;82.56
77005;BME280;67261;53.132;18.006;2024-01-15T05:31:35;98279.06;;;1.33;82.59
77005;BME280;67261;53.132;18.006;2024-01-15T05:34:02;98284.17;;;1.35;82.64
77005;BME280;67261;53.132;18.006;2024-01-15T05:36:29;98280.05;;;1.38;82.49
77005;BME280;67261;53.132;18.006;2024-01-15T05:38:56;98277.96;;;1.42;82.24
77005;BME280;67261;53.132;18.006;2024-01-15T05:41:24;98271.34;;;1.43;82.36
77005;BME280;67261;53.132;18.006;2024-01-15T05:43:51;98267.80;;;1.46;82.17
77005;BME280;67261;53.132;18.006;2024-01-15T05:46:17;98267.55;;;1.48;82.11
77005;BME280;67261;53.132;18.006;2024-01-15T05:48:44;98267.21;;;1.50;82.20
77005;BME280;67261;53.132;18.006;2024-01-15T05:51:12;98264.23;;;1.52;82.04
77005;BME280;67261;53.132;18.006;2024-01-15T05:53:39;98269.04;;;1.52;82.05
77005;BME280;67261;53.132;18.006;2024-01-15T05:56:08;98264.52;;;1.52;81.92
77005;BME280;67261;53.132;18.006;2024-01-15T05:58:37;98265.92;;;1.51;81.77
77005;BME280;67261;53.132;18.006;2024-01-15T06:01:04;98259.21;;;1.48;82.03
77005;BME280;67261;53.132;18.006;2024-01-15T06:03:31;98258.73;;;1.49;81.98
77005;BME280;67261;53.132;18.006;2024-01-15T06:05:57;98257.41;;;1.51;81.86
77005;BME280;67261;53.132;18.006;2024-01-15T06:08:24;98259.00;;;1.52;81.85
77005;BME280;67261;53.132;18.006;2024-01-15T06:10:53;98253.69;;;1.53;81.82
77005;BME280;67261;53.132;18.006;2024-01-15T06:13:20;98254.21;;;1.53;81.86
77005;BME280;67261;53.132;18.006;2024-01-15T06:15:48;98257.23;;;1.51;82.07
77005;BME280;67261;53.132;18.006;2024-01-15T06:18:15;98246.36;;;1.51;82.15
77005;BME280;67261;53.132;18.006;2024-01-15T06:20:42;98252.92;;;1.52;82.26
77005;BME280;67261;53.132;18.006;2024-01-15T06:23:09;98250.12;;;1.52;82.23
77005;BME280;67261;53.132;18.006;2024-01-15T06:25:36;98252.34;;;1.52;82.32
77005;BME280;67261;53.132;18.006;2024-01-15T06:28:03;98246.20;;;1.52;82.19
77005;BME280;67261;53.132;18.006;2024-01-15T06:30:31;98245.94;;;1.52;82.22
77005;BME280;67261;53.132;18.006;2024-01-15T06:32:58;98242.11;;;1.52;82.17
77005;BME280;67261;53.132;18.006;2024-01-15T06:35:25;98239.70;;;1.51;82.18
77005;BME280;67261;53.132;18.006;2024-01-15T06:37:52;98242.11;;;1.52;82.21
77005;BME280;67261;53.132;18.006;2024-01-15T06:40:19;98243.80;;;1.54;82.02
77005;BME280;67261;53.132;18.006;2024-01-15T06:42:47;98243.33;;;1.55;82.05
77005;BME280;67261;53.132;18.006;2024-01-15T06:45:14;98239.09;;;1.56;82.00
77005;BME280;67261;53.132;18.006;2024-01-15T06:47:41;98234.04;;;1.57;81.95
77005;BME280;67261;53.132;18.006;2024-01-15T06:50:08;98237.17;;;1.59;81.84
77005;BME280;67261;53.132;18.006;2024-01-15T06:52:35;98230.30;;;1.58;81.75
77005;BME280;67261;53.132;18.006;2024-01-15T06:55:03;98230.33;;;1.58;81.68
77005;BME280;67261;53.132;18.006;2024-01-15T06:57:30;98228.32;;;1.58;81.75
77005;BME280;67261;53.132;18.006;2024-01-15T06:59:57;98229.70;;;1.60;81.66
77005;BME280;67261;53.132;18.006;2024-01-15T07:02:24;98228.58;;;1.63;81.76
77005;BME280;67261;53.132;18.006;2024-01-15T07:04:51;98222.23;;;1.65;81.67
77005;BME280;67261;53.132;18.006;2024-01-15T07:07:18;98221.45;;;1.64;81.63
77005;BME280;67261;53.132;18.006;2024-01-15T07:09:46;98229.46;;;1.63;81.56
77005;BME280;67261;53.132;18.006;2024-01-15T07:12:12;98224.36;;;1.65;81.48
77005;BME280;67261;53.132;18.006;2024-01-15T07:14:39;98224.04;;;1.68;81.31
77005;BME280;67261;53.132;18.006;2024-01-15T07:17:06;98225.44;;;1.68;81.44
77005;BME280;67261;53.132;18.006;2024-01-15T07:19:33;98225.68;;;1.69;81.48
77005;BME280;67261;53.132;18.006;2024-01-15T07:22:00;98226.86;;;1.69;81.64
77005;BME280;67261;53.132;18.006;2024-01-15T07:24:27;98231.77;;;1.67;81.93
77005;BME280;67261;53.132;18.006;2024-01-15T07:26:54;98234.06;;;1.67;82.18
77005;BME280;67261;53.132;18.006;2024-01-15T07:29:21;98236.26;;;1.66;82.08
77005;BME280;67261;53.132;18.006;2024-01-15T07:31:49;98238.83;;;1.65;82.45
77005;BME280;67261;53.132;18.006;2024-01-15T07:34:17;98244.17;;;1.65;82.52
77005;BME280;67261;53.132;18.006;2024-01-15T07:36:44;98237.80;;;1.68;82.44
77005;BME280;67261;53.132;18.006;2024-01-15T07:39:12;98238.09;;;1.70;82.49
77005;BME280;67261;53.132;18.006;2024-01-15T07:41:39;98238.11;;;1.73;82.33
77005;BME280;67261;53.132;18.006;2024-01-15T07:44:06;98236.55;;;1.76;82.20
77005;BME280;67261;53.132;18.006;2024-01-15T07:46:33;98233.39;;;1.77;82.18
77005;BME280;67261;53.132;18.006;2024-01-15T07:49:01;98227.10;;;1.78;82.08
77005;BME280;67261;53.132;18.006;2024-01-15T07:51:28;98230.67;;;1.79;81.77
77005;BME280;67261;53.132;18.006;2024-01-15T07:53:56;98233.54;;;1.80;81.73
77005;BME280;67261;53.132;18.006;2024-01-15T07:56:23;98229.47;;;1.82;81.70
77005;BME280;67261;53.132;18.006;2024-01-15T07:58:50;98224.68;;;1.85;81.62
77005;BME280;67261;53.132;18.006;2024-01-15T08:01:17;98224.95;;;1.89;81.43
77005;BME280;67261;53.132;18.006;2024-01-15T08:03:44;98225.90;;;1.91;81.37
77005;BME280;67261;53.132;18.006;2024-01-15T08:06:11;98222.58;;;1.95;81.24
77005;BME280;67261;53.132;18.006;2024-01-15T08:08:38;98223.00;;;1.98;81.12
77005;BME280;67261;53.132;18.006;2024-01-15T08:11:05;98222.27;;;2.01;80.94
77005;BME280;67261;53.132;18.006;2024-01-15T08:13:32;98220.21;;;2.04;80.81
77005;BME280;67261;53.132;18.006;2024-01-15T08:15:59;98214.09;;;2.06;80.74
77005;BME280;67261;53.132;18.006;2024-01-15T08:18:26;98218.66;;;2.05;80.38
77005;BME280;67261;53.132;18.006;2024-01-15T08:20:53;98215.27;;;2.03;80.56
77005;BME280;67261;53.132;18.006;2024-01-15T08:23:20;98218.98;;;2.01;80.69
77005;BME280;67261;53.132;18.006;2024-01-15T08:25:48;98215.12;;;1.98;80.71
77005;BME280;67261;53.132;18.006;2024-01-15T08:28:15;98216.16;;;1.98;80.78
77005;BME280;67261;53.132;18.006;2024-01-15T08:30:42;98212.33;;;2.00;80.75
77005;BME280;67261;53.132;18.006;2024-01-15T08:33:09;98210.90;;;2.01;80.61
77005;BME280;67261;53.132;18.006;2024-01-15T08:35:36;98212.17;;;2.03;80.53
77005;BME280;67261;53.132;18.006;2024-01-15T08:38:03;98214.42;;;2.08;80.12
77005;BME280;67261;53.132;18.006;2024-01-15T08:40:30;98212.59;;;2.17;79.62
77005;BME280;67261;53.132;18.006;2024-01-15T08:42:57;98211.88;;;2.28;79.29
77005;BME280;67261;53.132;18.006;2024-01-15T08:45:24;98214.34;;;2.39;79.36
77005;BME280;67261;53.132;18.006;2024-01-15T08:47:51;98204.03;;;2.51;79.27
77005;BME280;67261;53.132;18.006;2024-01-15T08:50:18;98201.51;;;2.59;78.82
77005;BME280;67261;53.132;18.006;2024-01-15T08:52:45;98199.52;;;2.63;78.53
77005;BME280;67261;53.132;18.006;2024-01-15T08:55:13;98199.22;;;2.61;78.66
77005;BME280;67261;53.132;18.006;2024-01-15T08:57:40;98199.48;;;2.62;78.39
77005;BME280;67261;53.132;18.006;2024-01-15T09:00:07;98206.90;;;2.58;78.26
77005;BME280;67261;53.132;18.006;2024-01-15T09:02:35;98205.87;;;2.55;78.47
77005;BME280;67261;53.132;18.006;2024-01-15T09:05:03;98206.23;;;2.53;78.21
77005;BME280;67261;53.132;18.006;2024-01-15T09:07:32;98195.64;;;2.56;78.39
77005;BME280;67261;53.132;18.006;2024-01-15T09:09:59;98192.14;;;2.62;78.72
77005;BME280;67261;53.132;18.006;2024-01-15T09:12:27;98186.20;;;2.86;78.36
77005;BME280;67261;53.132;18.006;2024-01-15T09:14:54;98190.54;;;3.08;78.07
77005;BME280;67261;53.132;18.006;2024-01-15T09:17:21;98186.58;;;3.13;77.95
77005;BME280;67261;53.132;18.006;2024-01-15T09:19:50;98188.81;;;3.04;77.86
77005;BME280;67261;53.132;18.006;2024-01-15T09:22:17;98186.81;;;2.93;78.15
77005;BME280;67261;53.132;18.006;2024-01-15T09:24:47;98182.15;;;2.86;78.50
77005;BME280;67261;53.132;18.006;2024-01-15T09:27:14;98181.44;;;2.82;78.30
77005;BME280;67261;53.132;18.006;2024-01-15T09:29:42;98175.48;;;2.78;78.25
77005;BME280;67261;53.132;18.006;2024-01-15T09:32:11;98176.40;;;2.80;78.18
77005;BME280;67261;53.132;18.006;2024-01-15T09:34:38;98176.42;;;2.89;78.16
77005;BME280;67261;53.132;18.006;2024-01-15T09:37:05;98168.09;;;3.03;77.86
77005;BME280;67261;53.132;18.006;2024-01-15T09:39:33;98171.48;;;3.10;77.87
77005;BME280;67261;53.132;18.006;2024-01-15T09:41:59;98173.55;;;3.12;77.86
77005;BME280;67261;53.132;18.006;2024-01-15T09:44:27;98171.77;;;3.16;77.72
77005;BME280;67261;53.132;18.006;2024-01-15T09:46:55;98172.27;;;3.15;77.54
77005;BME280;67261;53.132;18.006;2024-01-15T09:49:23;98164.06;;;3.11;77.45
77005;BME280;67261;53.132;18.006;2024-01-15T09:51:51;98178.02;;;3.03;77.34
77005;BME280;67261;53.132;18.006;2024-01-15T09:54:18;98183.64;;;2.92;77.10
77005;BME280;67261;53.132;18.006;2024-01-15T09:56:46;98183.48;;;2.79;78.32
77005;BME280;67261;53.132;18.006;2024-01-15T09:59:18;98182.91;;;2.65;78.92
77005;BME280;67261;53.132;18.006;2024-01-15T10:01:45;98185.92;;;2.58;79.21
77005;BME280;67261;53.132;18.006;2024-01-15T10:04:14;98186.45;;;2.60;79.40
77005;BME280;67261;53.132;18.006;2024-01-15T10:06:44;98178.53;;;2.62;79.48
77005;BME280;67261;53.132;18.006;2024-01-15T10:09:13;98189.80;;;2.61;79.09
77005;BME280;67261;53.132;18.006;2024-01-15T10:11:44;98192.40;;;2.64;78.83
77005;BME280;67261;53.132;18.006;2024-01-15T10:14:12;98195.47;;;2.70;78.76
77005;BME280;67261;53.132;18.006;2024-01-15T10:16:40;98194.38;;;2.74;78.60
77005;BME280;67261;53.132;18.006;2024-01-15T10:19:08;98198.08;;;2.78;78.51
77005;BME280;67261;53.132;18.006;2024-01-15T10:21:36;98192.59;;;2.88;78.32
77005;BME280;67261;53.132;18.006;2024-01-15T10:24:04;98193.84;;;2.98;78.21
77005;BME280;67261;53.132;18.006;2024-01-15T10:26:32;98192.98;;;3.01;78.07
77005;BME280;67261;53.132;18.006;2024-01-15T10:28:59;98182.88;;;3.00;77.82
77005;BME280;67261;53.132;18.006;2024-01-15T10:31:27;98184.86;;;3.03;77.08
77005;BME280;67261;53.132;18.006;2024-01-15T10:33:54;98184.73;;;3.12;76.92
77005;BME280;67261;53.132;18.006;2024-01-15T10:36:21;98186.41;;;3.19;76.51
77005;BME280;67261;53.132;18.006;2024-01-15T10:38:49;98176.16;;;3.20;76.29
77005;BME280;67261;53.132;18.006;2024-01-15T10:41:16;98168.32;;;3.21;76.42
77005;BME280;67261;53.132;18.006;2024-01-15T10:43:43;98174.73;;;3.23;76.55
77005;BME280;67261;53.132;18.006;2024-01-15T10:46:12;98176.11;;;3.25;76.49
77005;BME280;67261;53.132;18.006;2024-01-15T10:48:39;98170.83;;;3.25;76.46
77005;BME280;67261;53.132;18.006;2024-01-15T10:51:06;98173.70;;;3.36;76.20
77005;BME280;67261;53.132;18.006;2024-01-15T10:53:39;98175.06;;;3.53;76.22
77005;BME280;67261;53.132;18.006;2024-01-15T10:56:10;98177.95;;;3.63;75.80
77005;BME280;67261;53.132;18.006;2024-01-15T10:58:39;98170.08;;;3.64;75.71
77005;BME280;67261;53.132;18.006;2024-01-15T11:01:06;98170.20;;;3.65;75.49
77005;BME280;67261;53.132;18.006;2024-01-15T11:03:34;98168.41;;;3.59;75.64
77005;BME280;67261;53.132;18.006;2024-01-15T11:06:01;98174.59;;;3.46;75.72
77005;BME280;67261;53.132;18.006;2024-01-15T11:08:30;98176.30;;;3.29;76.26
77005;BME280;67261;53.132;18.006;2024-01-15T11:10:57;98183.43;;;3.16;76.98
77005;BME280;67261;53.132;18.006;2024-01-15T11:16:02;98180.90;;;2.90;77.89
77005;BME280;67261;53.132;18.006;2024-01-15T11:18:38;98180.52;;;2.80;78.29
77005;BME280;67261;53.132;18.006;2024-01-15T11:23:47;98183.01;;;2.64;78.73
77005;BME280;67261;53.132;18.006;2024-01-15T11:29:06;98186.45;;;2.55;79.05
77005;BME280;67261;53.132;18.006;2024-01-15T11:34:03;98191.05;;;2.44;79.60
77005;BME280;67261;53.132;18.006;2024-01-15T11:37:01;98186.17;;;2.42;79.76
77005;BME280;67261;53.132;18.006;2024-01-15T11:42:03;98176.77;;;2.62;79.26
77005;BME280;67261;53.132;18.006;2024-01-15T11:44:31;98176.19;;;2.72;79.04
77005;BME280;67261;53.132;18.006;2024-01-15T11:52:25;98170.77;;;2.82;77.65
77005;BME280;67261;53.132;18.006;2024-01-15T11:59:58;98174.45;;;2.98;75.29
77005;BME280;67261;53.132;18.006;2024-01-15T12:02:31;98177.27;;;2.99;75.11
77005;BME280;67261;53.132;18.006;2024-01-15T12:05:17;98183.49;;;3.01;75.26
77005;BME280;67261;53.132;18.006;2024-01-15T12:07:58;98178.27;;;3.03;74.81
77005;BME280;67261;53.132;18.006;2024-01-15T12:10:43;98181.19;;;3.06;74.09
77005;BME280;67261;53.132;18.006;2024-01-15T12:13:16;98174.02;;;3.12;72.72
77005;BME280;67261;53.132;18.006;2024-01-15T12:15:54;98173.36;;;3.25;73.33
77005;BME280;67261;53.132;18.006;2024-01-15T12:18:40;98180.05;;;3.50;73.38
77005;BME280;67261;53.132;18.006;2024-01-15T12:21:09;98175.67;;;3.60;72.94
77005;BME280;67261;53.132;18.006;2024-01-15T12:23:36;98180.62;;;3.58;72.44
77005;BME280;67261;53.132;18.006;2024-01-15T12:26:03;98186.46;;;3.51;72.00
77005;BME280;67261;53.132;18.006;2024-01-15T12:28:32;98190.67;;;3.35;72.70
77005;BME280;67261;53.132;18.006;2024-01-15T12:31:03;98187.19;;;3.20;73.40
77005;BME280;67261;53.132;18.006;2024-01-15T12:33:33;98190.96;;;3.11;73.33
77005;BME280;67261;53.132;18.006;2024-01-15T12:36:08;98190.52;;;3.01;73.51
77005;BME280;67261;53.132;18.006;2024-01-15T12:38:44;98194.41;;;2.94;73.71
77005;BME280;67261;53.132;18.006;2024-01-15T12:41:11;98193.30;;;2.93;73.66
77005;BME280;67261;53.132;18.006;2024-01-15T12:43:39;98194.70;;;2.91;73.37
77005;BME280;67261;53.132;18.006;2024-01-15T12:46:09;98199.68;;;2.91;73.63
77005;BME280;67261;53.132;18.006;2024-01-15T12:48:36;98195.46;;;2.93;72.45
77005;BME280;67261;53.132;18.006;2024-01-15T12:51:06;98193.11;;;2.92;71.53
77005;BME280;67261;53.132;18.006;2024-01-15T12:53:34;98188.04;;;2.88;71.17
77005;BME280;67261;53.132;18.006;2024-01-15T12:56:05;98194.95;;;2.84;70.20
77005;BME280;67261;53.132;18.006;2024-01-15T12:58:32;98192.10;;;2.75;69.53
77005;BME280;67261;53.132;18.006;2024-01-15T13:00:59;98191.11;;;2.70;69.81
77005;BME280;67261;53.132;18.006;2024-01-15T13:03:26;98192.19;;;2.65;70.44
77005;BME280;67261;53.132;18.006;2024-01-15T13:05:54;98198.69;;;2.63;70.70
77005;BME280;67261;53.132;18.006;2024-01-15T13:08:21;98205.98;;;2.60;70.80
77005;BME280;67261;53.132;18.006;2024-01-15T13:10:55;98208.77;;;2.60;70.81
77005;BME280;67261;53.132;18.006;2024-01-15T13:13:44;98202.73;;;2.61;70.44
77005;BME280;67261;53.132;18.006;2024-01-15T13:16:15;98203.70;;;2.60;70.49
77005;BME280;67261;53.132;18.006;2024-01-15T13:18:47;98205.11;;;2.57;70.38
77005;BME280;67261;53.132;18.006;2024-01-15T13:21:20;98204.08;;;2.59;70.42
77005;BME280;67261;53.132;18.006;2024-01-15T13:24:00;98200.46;;;2.56;70.56
77005;BME280;67261;53.132;18.006;2024-01-15T13:26:28;98208.24;;;2.50;71.27
77005;BME280;67261;53.132;18.006;2024-01-15T13:29:09;98202.59;;;2.41;71.62